Time;durP1;ratioP1;P1;durP2;ratioP2;P2;SDS_P1;SDS_P2;PMS_P1;PMS_P2;Temp;Humidity;BMP_temperature;BMP_pressure;BME280_temperature;BME280_humidity;BME280_pressure;Samples;Min_cycle;Max_cycle;Signal;HPM_P1;HPM_P2
2021/12/30 00:00:44;;;;;;;;;;;10.60;57.10;;;;;;5103773;28;19961;-70
2021/12/30 00:03:10;;;;;;;;;;;10.60;57.10;;;;;;5103798;28;19911;-70
2021/12/30 00:05:36;;;;;;;;;;;10.60;57.10;;;;;;5103626;28;19915;-70
2021/12/30 00:08:02;;;;;;;;;;;10.60;57.10;;;;;;5103546;28;19924;-70
2021/12/30 00:10:28;;;;;;;;;;;10.60;57.10;;;;;;5103559;28;19928;-69
2021/12/30 00:12:54;;;;;;;;;;;10.60;57.10;;;;;;5103598;28;20007;-70
2021/12/30 00:15:20;;;;;;;;;;;10.60;57.10;;;;;;5085517;28;19949;-69
2021/12/30 00:17:46;;;;;;;;;;;10.60;57.10;;;;;;5103436;28;19907;-70
2021/12/30 00:20:11;;;;;;;;;;;10.60;57.10;;;;;;5103430;28;19908;-69
2021/12/30 00:22:38;;;;;;;;;;;10.60;57.10;;;;;;5085066;28;20200;-69
2021/12/30 00:25:04;;;;;;;;;;;10.60;57.00;;;;;;5103303;28;20244;-69
2021/12/30 00:27:30;;;;;;;;;;;10.60;57.10;;;;;;5103227;28;19914;-70
2021/12/30 00:29:56;;;;;;;;;;;10.60;57.70;;;;;;5103164;28;19950;-70
2021/12/30 00:32:22;;;;;;;;;;;10.60;57.10;;;;;;5103167;28;20205;-70
2021/12/30 00:34:47;;;;;;;;;;;10.60;57.10;;;;;;5103107;28;20122;-70
2021/12/30 00:37:13;;;;;;;;;;;10.60;57.20;;;;;;5103099;28;19900;-69
2021/12/30 00:39:39;;;;;;;;;;;10.50;57.10;;;;;;5103071;28;19907;-69
2021/12/30 00:42:04;;;;;;;;;;;10.60;57.20;;;;;;5102989;28;20355;-70
2021/12/30 00:44:30;;;;;;;;;;;10.60;57.10;;;;;;5102940;28;19908;-70
2021/12/30 00:46:58;;;;;;;;;;;10.60;57.20;;;;;;5102850;28;19935;-69
2021/12/30 00:49:24;;;;;;;;;;;10.60;57.20;;;;;;5102392;28;19900;-70
2021/12/30 00:51:49;;;;;;;;;;;10.60;57.20;;;;;;5102817;28;20196;-70
2021/12/30 00:54:15;;;;;;;;;;;10.60;57.10;;;;;;5102761;28;19978;-71
2021/12/30 00:56:41;;;;;;;;;;;10.60;57.10;;;;;;5102764;28;19908;-70
2021/12/30 00:59:07;;;;;;;;;;;10.60;57.20;;;;;;5102659;28;20200;-70
2021/12/30 01:01:33;;;;;;;;;;;10.50;57.10;;;;;;5102734;28;19907;-70
2021/12/30 01:03:59;;;;;;;;;;;10.50;57.00;;;;;;5102490;28;19900;-70
2021/12/30 01:06:24;;;;;;;;;;;10.60;57.00;;;;;;5102372;28;19920;-70
2021/12/30 01:08:50;;;;;;;;;;;10.60;57.00;;;;;;5102525;28;19908;-69
2021/12/30 01:11:15;;;;;;;;;;;10.60;57.10;;;;;;5102302;28;19916;-70
2021/12/30 01:13:44;;;;;;;;;;;10.60;57.10;;;;;;5102376;28;19908;-70
2021/12/30 01:16:18;;;;;;;;;;;10.60;57.10;;;;;;5102312;28;19914;-70
2021/12/30 01:19:01;;;;;;;;;;;10.60;57.20;;;;;;5102245;28;19907;-72
2021/12/30 01:21:28;;;;;;;;;;;10.60;57.20;;;;;;5102260;28;19907;-70
2021/12/30 01:23:55;;;;;;;;;;;10.50;57.10;;;;;;5102211;28;19936;-70
2021/12/30 01:26:21;;;;;;;;;;;10.60;57.10;;;;;;5102264;28;20028;-70
2021/12/30 01:28:48;;;;;;;;;;;10.60;57.10;;;;;;5102080;28;19915;-70
2021/12/30 01:31:13;;;;;;;;;;;10.60;57.10;;;;;;5101984;28;20115;-70
2021/12/30 01:33:39;;;;;;;;;;;10.60;57.20;;;;;;5102017;28;19950;-70
2021/12/30 01:36:05;;;;;;;;;;;10.60;57.20;;;;;;5102022;28;19912;-70
2021/12/30 01:38:31;;;;;;;;;;;10.60;57.20;;;;;;5102003;28;19915;-69
2021/12/30 01:41:00;;;;;;;;;;;10.50;57.10;;;;;;5101806;28;19979;-70
2021/12/30 01:43:26;;;;;;;;;;;10.50;57.10;;;;;;5101775;28;20204;-70
2021/12/30 01:45:52;;;;;;;;;;;10.60;57.10;;;;;;5101904;28;19923;-70
2021/12/30 01:48:18;;;;;;;;;;;10.50;57.10;;;;;;5101689;28;20184;-69
2021/12/30 01:50:44;;;;;;;;;;;10.50;57.10;;;;;;5101635;28;19904;-70
2021/12/30 01:53:10;;;;;;;;;;;10.60;57.10;;;;;;5101674;28;19950;-70
2021/12/30 01:55:37;;;;;;;;;;;10.60;57.20;;;;;;5101563;28;19911;-70
2021/12/30 01:58:03;;;;;;;;;;;10.50;57.10;;;;;;5101559;28;19922;-70
2021/12/30 02:00:29;;;;;;;;;;;10.60;57.20;;;;;;5101497;28;19975;-69
2021/12/30 02:02:55;;;;;;;;;;;10.60;57.20;;;;;;5101430;28;19908;-69
2021/12/30 02:05:21;;;;;;;;;;;10.60;57.20;;;;;;5101513;28;19908;-69
2021/12/30 02:07:47;;;;;;;;;;;10.60;57.20;;;;;;5082906;28;19919;-70
2021/12/30 02:10:14;;;;;;;;;;;10.60;57.10;;;;;;5101278;28;19908;-69
2021/12/30 02:12:40;;;;;;;;;;;10.60;57.10;;;;;;5101306;28;19969;-70
2021/12/30 02:15:08;;;;;;;;;;;10.60;57.10;;;;;;5100637;28;20123;-70
2021/12/30 02:17:34;;;;;;;;;;;10.60;57.20;;;;;;5101142;28;19900;-70
2021/12/30 02:20:00;;;;;;;;;;;10.60;57.20;;;;;;5101120;28;20249;-69
2021/12/30 02:22:26;;;;;;;;;;;10.60;57.20;;;;;;5101069;28;20192;-70
2021/12/30 02:24:52;;;;;;;;;;;10.50;57.10;;;;;;5101162;28;19915;-69
2021/12/30 02:27:18;;;;;;;;;;;10.50;57.00;;;;;;5100983;28;19900;-70
2021/12/30 02:29:44;;;;;;;;;;;10.60;57.10;;;;;;5100810;28;20138;-70
2021/12/30 02:32:10;;;;;;;;;;;10.60;57.10;;;;;;5100904;28;19908;-70
2021/12/30 02:34:38;;;;;;;;;;;10.60;57.10;;;;;;5100871;28;19939;-71
2021/12/30 02:37:04;;;;;;;;;;;10.60;57.10;;;;;;5100789;28;19962;-69
2021/12/30 02:39:30;;;;;;;;;;;10.60;57.10;;;;;;5100821;28;19957;-70
2021/12/30 02:41:56;;;;;;;;;;;10.60;57.10;;;;;;5100668;28;19912;-70
2021/12/30 02:44:21;;;;;;;;;;;10.60;57.20;;;;;;5082524;28;19914;-70
2021/12/30 02:46:51;;;;;;;;;;;10.60;57.20;;;;;;5100584;28;19908;-69
2021/12/30 02:49:17;;;;;;;;;;;10.60;57.10;;;;;;5082245;28;19915;-70
2021/12/30 02:51:42;;;;;;;;;;;10.60;57.10;;;;;;5082436;28;19900;-70
2021/12/30 02:54:08;;;;;;;;;;;10.60;57.10;;;;;;5100403;28;19908;-71
2021/12/30 02:56:34;;;;;;;;;;;10.60;57.70;;;;;;5100512;28;19931;-70
2021/12/30 02:58:59;;;;;;;;;;;10.60;57.20;;;;;;5100444;28;20164;-70
2021/12/30 03:01:27;;;;;;;;;;;10.50;57.10;;;;;;5100334;28;19939;-71
2021/12/30 03:03:53;;;;;;;;;;;10.60;57.10;;;;;;5100319;28;19907;-70
2021/12/30 03:06:19;;;;;;;;;;;10.60;57.10;;;;;;5100188;28;20100;-70
2021/12/30 03:08:45;;;;;;;;;;;10.60;57.20;;;;;;5100212;28;19942;-69
2021/12/30 03:11:11;;;;;;;;;;;10.60;57.20;;;;;;5100125;28;19919;-70
2021/12/30 03:13:40;;;;;;;;;;;10.60;57.20;;;;;;5100159;28;19908;-70
2021/12/30 03:16:07;;;;;;;;;;;10.60;57.70;;;;;;5082042;28;19911;-70
2021/12/30 03:18:34;;;;;;;;;;;10.50;57.10;;;;;;5100213;28;19941;-70
2021/12/30 03:21:01;;;;;;;;;;;10.60;57.30;;;;;;5100136;28;19908;-70
2021/12/30 03:23:26;;;;;;;;;;;10.50;57.20;;;;;;5081924;28;20396;-71
2021/12/30 03:25:52;;;;;;;;;;;10.60;57.30;;;;;;5100002;28;19954;-70
2021/12/30 03:28:18;;;;;;;;;;;10.50;57.20;;;;;;5099137;28;19900;-70
2021/12/30 03:30:44;;;;;;;;;;;10.50;57.10;;;;;;5099996;28;19943;-71
2021/12/30 03:33:09;;;;;;;;;;;10.60;57.10;;;;;;5099883;28;19908;-70
2021/12/30 03:35:35;;;;;;;;;;;10.60;57.10;;;;;;5099887;28;20285;-70
2021/12/30 03:38:01;;;;;;;;;;;10.60;57.10;;;;;;5099865;28;19915;-70
2021/12/30 03:40:27;;;;;;;;;;;10.60;57.20;;;;;;5099793;28;19908;-70
2021/12/30 03:42:52;;;;;;;;;;;10.60;57.20;;;;;;5099902;28;19971;-70
2021/12/30 03:45:18;;;;;;;;;;;10.50;57.00;;;;;;5099721;28;19907;-70
2021/12/30 03:47:46;;;;;;;;;;;10.60;57.10;;;;;;5081569;28;19915;-70
2021/12/30 03:50:18;;;;;;;;;;;10.50;57.10;;;;;;5099717;28;19946;-70
2021/12/30 03:52:43;;;;;;;;;;;10.60;57.30;;;;;;5099711;28;20219;-70
2021/12/30 03:55:09;;;;;;;;;;;10.60;57.20;;;;;;5099843;28;19912;-70
2021/12/30 03:57:36;;;;;;;;;;;10.60;57.10;;;;;;5099711;28;19912;-70
2021/12/30 04:00:02;;;;;;;;;;;10.60;57.20;;;;;;5099681;28;19908;-70
2021/12/30 04:02:28;;;;;;;;;;;10.60;57.20;;;;;;5099613;28;20134;-70
2021/12/30 04:04:53;;;;;;;;;;;10.60;57.10;;;;;;5099700;28;19900;-69
2021/12/30 04:07:19;;;;;;;;;;;10.60;57.10;;;;;;5099494;28;19942;-70
2021/12/30 04:09:45;;;;;;;;;;;10.60;57.10;;;;;;5099511;28;20089;-70
2021/12/30 04:12:10;;;;;;;;;;;10.60;57.20;;;;;;5081511;28;19915;-70
2021/12/30 04:14:36;;;;;;;;;;;10.60;57.10;;;;;;5099473;28;19915;-69
2021/12/30 04:17:02;;;;;;;;;;;10.60;57.10;;;;;;5099594;28;19908;-70
2021/12/30 04:19:27;;;;;;;;;;;10.60;57.10;;;;;;5099463;28;19904;-70
2021/12/30 04:21:56;;;;;;;;;;;10.60;57.10;;;;;;5099437;28;19904;-70
2021/12/30 04:24:21;;;;;;;;;;;10.60;57.10;;;;;;5099465;28;20204;-71
2021/12/30 04:26:47;;;;;;;;;;;10.60;57.10;;;;;;5099420;28;19914;-72
2021/12/30 04:29:13;;;;;;;;;;;10.50;57.10;;;;;;5099460;28;19968;-70
2021/12/30 04:31:38;;;;;;;;;;;10.60;57.20;;;;;;5099226;28;20191;-70
2021/12/30 04:34:04;;;;;;;;;;;10.50;57.20;;;;;;5099403;28;20081;-70
2021/12/30 04:36:30;;;;;;;;;;;10.60;57.20;;;;;;5099275;28;19908;-70
2021/12/30 04:38:55;;;;;;;;;;;10.60;57.10;;;;;;5100569;28;19946;-70
2021/12/30 04:41:21;;;;;;;;;;;10.60;57.10;;;;;;5102962;28;19912;-70
2021/12/30 04:43:46;;;;;;;;;;;10.60;57.20;;;;;;5102959;28;19979;-70
2021/12/30 04:46:13;;;;;;;;;;;10.60;57.20;;;;;;5102872;28;19979;-70
2021/12/30 04:48:38;;;;;;;;;;;10.60;57.20;;;;;;5102808;28;19900;-70
2021/12/30 04:51:04;;;;;;;;;;;10.50;57.10;;;;;;5102739;28;19935;-69
2021/12/30 04:53:30;;;;;;;;;;;10.60;57.20;;;;;;5102791;28;19945;-70
2021/12/30 04:55:55;;;;;;;;;;;10.60;57.10;;;;;;5102680;28;19961;-70
2021/12/30 04:58:21;;;;;;;;;;;10.60;57.10;;;;;;5084530;28;19955;-70
2021/12/30 05:00:46;;;;;;;;;;;10.50;57.10;;;;;;5102600;28;19907;-70
2021/12/30 05:03:14;;;;;;;;;;;10.60;57.20;;;;;;5102568;28;19908;-70
2021/12/30 05:05:39;;;;;;;;;;;10.60;57.20;;;;;;5102533;28;19939;-70
2021/12/30 05:08:05;;;;;;;;;;;10.60;57.20;;;;;;5102445;28;20330;-70
2021/12/30 05:10:31;;;;;;;;;;;10.60;57.20;;;;;;5102519;28;19939;-70
2021/12/30 05:13:00;;;;;;;;;;;10.60;57.20;;;;;;5102433;28;19946;-70
2021/12/30 05:15:26;;;;;;;;;;;10.60;57.20;;;;;;5084202;28;20107;-69
2021/12/30 05:17:52;;;;;;;;;;;10.60;57.20;;;;;;5102298;28;19915;-69
2021/12/30 05:20:18;;;;;;;;;;;10.60;57.20;;;;;;5102187;28;19906;-70
2021/12/30 05:22:43;;;;;;;;;;;10.60;57.20;;;;;;5102254;28;19935;-69
2021/12/30 05:25:10;;;;;;;;;;;10.60;57.20;;;;;;5083957;28;20168;-69
2021/12/30 05:27:35;;;;;;;;;;;10.60;57.20;;;;;;5102067;28;19952;-69
2021/12/30 05:30:03;;;;;;;;;;;10.60;57.20;;;;;;5101995;28;19939;-69
2021/12/30 05:32:28;;;;;;;;;;;10.50;57.20;;;;;;5083699;28;19949;-69
2021/12/30 05:34:54;;;;;;;;;;;10.60;57.20;;;;;;5083793;28;19911;-70
2021/12/30 05:37:19;;;;;;;;;;;10.60;57.20;;;;;;5101984;28;19908;-70
2021/12/30 05:39:45;;;;;;;;;;;10.60;57.30;;;;;;5083640;28;20127;-70
2021/12/30 05:42:10;;;;;;;;;;;10.50;57.20;;;;;;5101900;28;19908;-70
2021/12/30 05:44:36;;;;;;;;;;;10.50;57.20;;;;;;5101718;28;19915;-69
2021/12/30 05:47:02;;;;;;;;;;;10.60;57.20;;;;;;5101816;28;19908;-70
2021/12/30 05:49:27;;;;;;;;;;;10.60;57.20;;;;;;5101480;28;19904;-69
2021/12/30 05:51:53;;;;;;;;;;;10.60;57.20;;;;;;5100862;28;19963;-69
2021/12/30 05:54:19;;;;;;;;;;;10.60;57.20;;;;;;5101596;28;20182;-70
2021/12/30 05:56:44;;;;;;;;;;;10.60;57.20;;;;;;5083336;28;20196;-71
2021/12/30 05:59:10;;;;;;;;;;;10.60;57.10;;;;;;5101450;28;19977;-70
2021/12/30 06:01:35;;;;;;;;;;;10.60;57.10;;;;;;5101505;28;19971;-70
2021/12/30 06:04:01;;;;;;;;;;;10.60;57.10;;;;;;5101406;28;19908;-70
2021/12/30 06:06:26;;;;;;;;;;;10.60;57.20;;;;;;5101145;28;19931;-70
2021/12/30 06:08:53;;;;;;;;;;;10.60;57.20;;;;;;5101378;28;19908;-70
2021/12/30 06:11:18;;;;;;;;;;;10.60;57.20;;;;;;5101192;28;19904;-70
2021/12/30 06:13:44;;;;;;;;;;;10.60;57.20;;;;;;5101256;28;20166;-70
2021/12/30 06:16:09;;;;;;;;;;;10.60;57.20;;;;;;5101187;28;19915;-70
2021/12/30 06:18:35;;;;;;;;;;;10.60;57.20;;;;;;5101114;28;19911;-71
2021/12/30 06:21:01;;;;;;;;;;;10.60;57.20;;;;;;5101111;28;19915;-70
2021/12/30 06:23:26;;;;;;;;;;;10.50;57.20;;;;;;5100968;28;19908;-70
2021/12/30 06:25:52;;;;;;;;;;;10.60;57.30;;;;;;5100937;28;19908;-69
2021/12/30 06:28:17;;;;;;;;;;;10.60;57.20;;;;;;5100934;28;19900;-70
2021/12/30 06:30:43;;;;;;;;;;;10.60;57.20;;;;;;5100869;28;19904;-69
2021/12/30 06:33:09;;;;;;;;;;;10.60;57.20;;;;;;5100871;28;20014;-70
2021/12/30 06:35:34;;;;;;;;;;;10.50;57.20;;;;;;5100782;28;19907;-69
2021/12/30 06:38:01;;;;;;;;;;;10.60;57.30;;;;;;5100794;28;20250;-69
2021/12/30 06:40:27;;;;;;;;;;;10.50;57.10;;;;;;5100676;28;19945;-70
2021/12/30 06:42:52;;;;;;;;;;;10.50;57.10;;;;;;5100717;28;19933;-70
2021/12/30 06:45:18;;;;;;;;;;;10.60;57.20;;;;;;5100555;28;19900;-70
2021/12/30 06:47:47;;;;;;;;;;;10.60;57.30;;;;;;5100586;28;19908;-70
2021/12/30 06:50:14;;;;;;;;;;;10.50;57.20;;;;;;5100637;28;20199;-69
2021/12/30 06:52:40;;;;;;;;;;;10.50;57.30;;;;;;5100455;28;19908;-70
2021/12/30 06:55:06;;;;;;;;;;;10.60;57.30;;;;;;5082246;28;19915;-71
2021/12/30 06:57:33;;;;;;;;;;;10.60;57.20;;;;;;5100504;28;19908;-70
2021/12/30 06:59:58;;;;;;;;;;;10.60;57.30;;;;;;5100343;28;19963;-71
2021/12/30 07:02:24;;;;;;;;;;;10.60;57.30;;;;;;5082299;28;19923;-71
2021/12/30 07:04:50;;;;;;;;;;;10.60;57.20;;;;;;5100365;28;19969;-69
2021/12/30 07:07:15;;;;;;;;;;;10.60;57.20;;;;;;5100121;28;19920;-70
2021/12/30 07:09:41;;;;;;;;;;;10.60;57.20;;;;;;5100226;28;19912;-70
2021/12/30 07:12:07;;;;;;;;;;;10.60;57.20;;;;;;5100150;28;19908;-70
2021/12/30 07:14:32;;;;;;;;;;;10.60;57.20;;;;;;5100240;28;19908;-70
2021/12/30 07:16:58;;;;;;;;;;;10.60;57.20;;;;;;5100127;28;19931;-69
2021/12/30 07:19:23;;;;;;;;;;;10.60;57.20;;;;;;5100107;28;19937;-69
2021/12/30 07:21:52;;;;;;;;;;;10.50;57.20;;;;;;5100089;28;19908;-69
2021/12/30 07:24:20;;;;;;;;;;;10.60;57.20;;;;;;5099975;28;20192;-70
2021/12/30 07:26:46;;;;;;;;;;;10.60;57.20;;;;;;5100011;28;19915;-70
2021/12/30 07:29:12;;;;;;;;;;;10.60;57.20;;;;;;5100071;28;19908;-70
2021/12/30 07:31:37;;;;;;;;;;;10.60;57.10;;;;;;5099869;28;19904;-70
2021/12/30 07:34:03;;;;;;;;;;;10.60;57.10;;;;;;5099959;28;19900;-71
2021/12/30 07:36:29;;;;;;;;;;;10.60;57.10;;;;;;5081771;28;19908;-70
2021/12/30 07:38:54;;;;;;;;;;;10.60;57.20;;;;;;5099953;28;20009;-70
2021/12/30 07:41:20;;;;;;;;;;;10.60;57.20;;;;;;5099844;28;19911;-71
2021/12/30 07:43:46;;;;;;;;;;;10.60;57.10;;;;;;5099748;28;19908;-71
2021/12/30 07:46:11;;;;;;;;;;;10.60;57.10;;;;;;5081728;28;20163;-71
2021/12/30 07:48:37;;;;;;;;;;;10.60;57.10;;;;;;5099780;28;19930;-71
2021/12/30 07:51:03;;;;;;;;;;;10.60;57.20;;;;;;5099804;28;19904;-71
2021/12/30 07:53:29;;;;;;;;;;;10.60;57.20;;;;;;5081713;28;19954;-71
2021/12/30 07:55:54;;;;;;;;;;;10.60;57.10;;;;;;5081551;28;19975;-72
2021/12/30 07:58:20;;;;;;;;;;;10.60;57.10;;;;;;5081665;28;19908;-71
2021/12/30 08:00:46;;;;;;;;;;;10.60;57.20;;;;;;5081664;28;20349;-71
2021/12/30 08:03:11;;;;;;;;;;;10.60;57.30;;;;;;5099753;28;19908;-71
2021/12/30 08:05:37;;;;;;;;;;;10.60;57.20;;;;;;5081473;28;20159;-71
2021/12/30 08:08:03;;;;;;;;;;;10.60;57.10;;;;;;5099624;28;19912;-70
2021/12/30 08:10:29;;;;;;;;;;;10.60;57.10;;;;;;5099555;28;20096;-71
2021/12/30 08:12:55;;;;;;;;;;;10.60;57.10;;;;;;5099661;28;19915;-71
2021/12/30 08:15:21;;;;;;;;;;;10.60;57.10;;;;;;5103325;28;19915;-70
2021/12/30 08:17:49;;;;;;;;;;;10.60;57.10;;;;;;5103364;28;20146;-71
2021/12/30 08:20:16;;;;;;;;;;;10.70;57.00;;;;;;5085337;28;19908;-70
2021/12/30 08:22:41;;;;;;;;;;;10.70;57.00;;;;;;5103395;28;19908;-70
2021/12/30 08:25:08;;;;;;;;;;;10.60;57.00;;;;;;5103231;28;19915;-72
2021/12/30 08:27:34;;;;;;;;;;;10.70;57.00;;;;;;5103342;28;20269;-71
2021/12/30 08:30:00;;;;;;;;;;;10.60;57.00;;;;;;5103227;28;19912;-71
2021/12/30 08:32:25;;;;;;;;;;;10.70;57.00;;;;;;5085077;28;19931;-71
2021/12/30 08:34:51;;;;;;;;;;;10.70;57.00;;;;;;5103269;28;20308;-71
2021/12/30 08:37:17;;;;;;;;;;;10.70;57.00;;;;;;5103175;28;19970;-71
2021/12/30 08:39:43;;;;;;;;;;;10.70;56.90;;;;;;5103174;28;20180;-70
2021/12/30 08:42:26;;;;;;;;;;;10.70;56.90;;;;;;5084955;28;20110;-70
2021/12/30 08:44:53;;;;;;;;;;;10.70;57.00;;;;;;5103051;28;19979;-70
2021/12/30 08:47:19;;;;;;;;;;;10.60;56.90;;;;;;5103019;28;19907;-70
2021/12/30 08:49:46;;;;;;;;;;;10.70;56.90;;;;;;5102948;28;19939;-70
2021/12/30 08:52:13;;;;;;;;;;;10.70;57.00;;;;;;5103007;28;20273;-69
2021/12/30 08:54:38;;;;;;;;;;;10.60;57.00;;;;;;5102909;28;19900;-69
2021/12/30 08:57:04;;;;;;;;;;;10.70;57.00;;;;;;5102845;28;19986;-70
2021/12/30 08:59:30;;;;;;;;;;;10.70;57.00;;;;;;5102887;28;19914;-70
2021/12/30 09:01:55;;;;;;;;;;;10.70;57.00;;;;;;5102813;28;20107;-70
2021/12/30 09:04:21;;;;;;;;;;;10.70;56.90;;;;;;5102788;28;19915;-69
2021/12/30 09:06:47;;;;;;;;;;;10.70;56.90;;;;;;5102435;28;19991;-70
2021/12/30 09:09:12;;;;;;;;;;;10.70;56.90;;;;;;5102724;28;19943;-69
2021/12/30 09:11:38;;;;;;;;;;;10.70;57.00;;;;;;5102473;28;19911;-69
2021/12/30 09:14:03;;;;;;;;;;;10.70;57.00;;;;;;5102630;28;19981;-70
2021/12/30 09:16:29;;;;;;;;;;;10.70;56.90;;;;;;5102530;28;19940;-69
2021/12/30 09:18:54;;;;;;;;;;;10.70;56.90;;;;;;5102421;28;20248;-71
2021/12/30 09:21:20;;;;;;;;;;;10.70;57.00;;;;;;5102401;28;20104;-69
2021/12/30 09:23:46;;;;;;;;;;;10.70;57.00;;;;;;5102330;28;19900;-70
2021/12/30 09:26:11;;;;;;;;;;;10.70;56.90;;;;;;5101017;28;19940;-70
2021/12/30 09:28:37;;;;;;;;;;;10.70;57.00;;;;;;5102268;28;20096;-70
2021/12/30 09:31:02;;;;;;;;;;;10.70;57.00;;;;;;5102275;28;19950;-70
2021/12/30 09:33:28;;;;;;;;;;;10.70;57.10;;;;;;5102164;28;20100;-70
2021/12/30 09:35:54;;;;;;;;;;;10.70;57.00;;;;;;5084038;28;19907;-70
2021/12/30 09:38:20;;;;;;;;;;;10.70;57.00;;;;;;5102170;28;20271;-70
2021/12/30 09:40:46;;;;;;;;;;;10.70;57.00;;;;;;5102116;28;19943;-70
2021/12/30 09:43:11;;;;;;;;;;;10.70;57.00;;;;;;5102090;28;19915;-70
2021/12/30 09:45:38;;;;;;;;;;;10.70;56.90;;;;;;5101978;28;19947;-70
2021/12/30 09:48:06;;;;;;;;;;;10.70;56.90;;;;;;5101941;28;20320;-71
2021/12/30 09:50:33;;;;;;;;;;;10.70;56.90;;;;;;5101852;28;20089;-68
2021/12/30 09:52:59;;;;;;;;;;;10.70;56.90;;;;;;5083665;28;19900;-69
2021/12/30 09:55:25;;;;;;;;;;;10.70;56.90;;;;;;5101735;28;19943;-69
2021/12/30 09:57:52;;;;;;;;;;;10.80;57.10;;;;;;5101784;28;20390;-69
2021/12/30 10:00:18;;;;;;;;;;;10.70;56.90;;;;;;5101683;28;19989;-69
2021/12/30 10:02:44;;;;;;;;;;;10.70;56.90;;;;;;5101696;28;19900;-69
2021/12/30 10:05:11;;;;;;;;;;;10.70;56.90;;;;;;5101597;28;19938;-70
2021/12/30 10:07:41;;;;;;;;;;;10.70;56.80;;;;;;5083422;28;19920;-70
2021/12/30 10:10:25;;;;;;;;;;;10.80;56.90;;;;;;5101419;28;19966;-70
2021/12/30 10:12:51;;;;;;;;;;;10.70;56.90;;;;;;5101488;28;19907;-71
2021/12/30 10:15:16;;;;;;;;;;;10.70;56.90;;;;;;5101438;28;20266;-70
2021/12/30 10:17:42;;;;;;;;;;;10.70;56.90;;;;;;5101385;28;20108;-70
2021/12/30 10:20:18;;;;;;;;;;;10.70;57.00;;;;;;5083104;28;19907;-70
2021/12/30 10:22:44;;;;;;;;;;;10.70;57.00;;;;;;5101320;28;20269;-70
2021/12/30 10:25:29;;;;;;;;;;;10.70;57.00;;;;;;5101240;28;19975;-70
2021/12/30 10:27:56;;;;;;;;;;;10.70;56.90;;;;;;5083009;28;19908;-68
2021/12/30 10:30:34;;;;;;;;;;;10.70;57.00;;;;;;5101107;28;19958;-70
2021/12/30 10:33:20;;;;;;;;;;;10.70;57.00;;;;;;5101095;28;19908;-69
2021/12/30 10:35:46;;;;;;;;;;;10.70;57.00;;;;;;5100390;28;19930;-70
2021/12/30 10:38:12;;;;;;;;;;;10.80;57.00;;;;;;5082610;28;20204;-69
2021/12/30 10:40:41;;;;;;;;;;;10.70;57.00;;;;;;5100950;28;19900;-70
2021/12/30 10:43:59;;;;;;;;;;;10.70;56.90;;;;;;5082692;28;20167;-70
2021/12/30 10:46:19;;;;;;;;;;;10.70;57.00;;;;;;5096679;28;19931;-69
2021/12/30 10:48:51;;;;;;;;;;;10.80;56.90;;;;;;5100880;28;19915;-69
2021/12/30 10:51:24;;;;;;;;;;;10.80;56.90;;;;;;5100710;28;19913;-70
2021/12/30 10:53:51;;;;;;;;;;;10.80;56.80;;;;;;5082526;28;19979;-71
2021/12/30 10:56:31;;;;;;;;;;;10.80;56.80;;;;;;5082516;28;19915;-70
2021/12/30 10:59:10;;;;;;;;;;;10.80;56.80;;;;;;5100656;28;19916;-71
2021/12/30 11:01:37;;;;;;;;;;;10.80;56.80;;;;;;5100606;28;19938;-70
2021/12/30 11:04:03;;;;;;;;;;;10.80;56.80;;;;;;5100625;28;19962;-70
2021/12/30 11:06:29;;;;;;;;;;;10.80;56.80;;;;;;5100402;28;20139;-70
2021/12/30 11:09:13;;;;;;;;;;;10.80;56.70;;;;;;5100509;28;19904;-70
2021/12/30 11:11:43;;;;;;;;;;;10.80;56.70;;;;;;5100387;28;20184;-70
2021/12/30 11:14:11;;;;;;;;;;;10.90;56.70;;;;;;5100370;28;20069;-69
2021/12/30 11:16:54;;;;;;;;;;;10.80;56.80;;;;;;5100359;28;19900;-69
2021/12/30 11:19:23;;;;;;;;;;;10.80;56.80;;;;;;5100324;28;19943;-70
2021/12/30 11:21:51;;;;;;;;;;;10.80;56.80;;;;;;5100185;28;20252;-69
2021/12/30 11:24:17;;;;;;;;;;;10.80;56.80;;;;;;5100241;28;19908;-70
2021/12/30 11:26:43;;;;;;;;;;;10.80;56.80;;;;;;5082136;28;20182;-69
2021/12/30 11:29:09;;;;;;;;;;;10.80;56.80;;;;;;5100257;28;19906;-70
2021/12/30 11:31:35;;;;;;;;;;;10.80;56.70;;;;;;5082060;28;19938;-70
2021/12/30 11:34:01;;;;;;;;;;;10.80;56.70;;;;;;5100130;28;19908;-70
2021/12/30 11:36:29;;;;;;;;;;;10.90;56.70;;;;;;5100163;28;20412;-70
2021/12/30 11:38:58;;;;;;;;;;;10.90;56.60;;;;;;5081922;28;20104;-70
2021/12/30 11:41:25;;;;;;;;;;;10.90;56.60;;;;;;5100066;28;19904;-70
2021/12/30 11:43:50;;;;;;;;;;;10.90;56.70;;;;;;5099993;28;20258;-70
2021/12/30 11:46:35;;;;;;;;;;;10.80;56.70;;;;;;5099935;28;19908;-71
2021/12/30 11:49:01;;;;;;;;;;;10.80;56.80;;;;;;5101606;28;19908;-70
2021/12/30 11:51:40;;;;;;;;;;;10.80;56.90;;;;;;5086003;28;19934;-70
2021/12/30 11:54:24;;;;;;;;;;;10.80;56.90;;;;;;5104134;28;20201;-70
2021/12/30 11:57:08;;;;;;;;;;;10.80;56.90;;;;;;5104103;28;19967;-71
2021/12/30 11:59:39;;;;;;;;;;;10.80;56.90;;;;;;5104039;28;19941;-70
2021/12/30 12:02:23;;;;;;;;;;;10.80;56.90;;;;;;5103952;28;19915;-70
2021/12/30 12:04:48;;;;;;;;;;;10.80;56.90;;;;;;5103926;28;19900;-70
2021/12/30 12:07:14;;;;;;;;;;;10.80;57.00;;;;;;5085633;28;20006;-70
2021/12/30 12:09:40;;;;;;;;;;;10.80;57.10;;;;;;5103749;28;19914;-70
2021/12/30 12:12:08;;;;;;;;;;;10.80;57.00;;;;;;5103781;28;20131;-70
2021/12/30 12:14:44;;;;;;;;;;;10.80;56.90;;;;;;5085509;28;20092;-69
2021/12/30 12:17:19;;;;;;;;;;;10.80;56.90;;;;;;5103683;28;19915;-70
2021/12/30 12:19:49;;;;;;;;;;;10.80;56.90;;;;;;5103619;28;19908;-70
2021/12/30 12:22:18;;;;;;;;;;;10.80;57.00;;;;;;5103548;28;19968;-71
2021/12/30 12:24:45;;;;;;;;;;;10.80;56.90;;;;;;5103515;28;19950;-70
2021/12/30 12:27:31;;;;;;;;;;;10.80;57.00;;;;;;5103404;28;19908;-70
2021/12/30 12:29:57;;;;;;;;;;;10.80;57.10;;;;;;5102828;28;19911;-70
2021/12/30 12:32:28;;;;;;;;;;;10.80;57.00;;;;;;5103310;28;19928;-69
2021/12/30 12:34:54;;;;;;;;;;;10.80;57.00;;;;;;5103338;28;19973;-70
2021/12/30 12:37:44;;;;;;;;;;;10.80;57.00;;;;;;5103299;28;19912;-69
2021/12/30 12:40:12;;;;;;;;;;;10.80;57.00;;;;;;5075276;28;19908;-69
2021/12/30 12:42:52;;;;;;;;;;;10.80;57.00;;;;;;5103099;28;19907;-69
2021/12/30 12:45:19;;;;;;;;;;;10.80;57.10;;;;;;5103035;28;19900;-70
2021/12/30 12:47:46;;;;;;;;;;;10.80;57.20;;;;;;5103080;28;19908;-70
2021/12/30 12:50:11;;;;;;;;;;;10.80;57.10;;;;;;5102546;28;19920;-69
2021/12/30 12:52:43;;;;;;;;;;;10.80;57.10;;;;;;5102981;28;19908;-70
2021/12/30 12:55:17;;;;;;;;;;;10.80;57.10;;;;;;5102892;28;20237;-71
2021/12/30 12:57:42;;;;;;;;;;;10.80;57.10;;;;;;5084669;28;19912;-70
2021/12/30 13:00:09;;;;;;;;;;;10.70;57.10;;;;;;5102352;28;20092;-71
2021/12/30 13:02:35;;;;;;;;;;;10.80;57.20;;;;;;5102802;28;19908;-70
2021/12/30 13:05:07;;;;;;;;;;;10.70;57.20;;;;;;5102723;28;19934;-70
2021/12/30 13:07:33;;;;;;;;;;;10.80;57.20;;;;;;5102616;28;19912;-70
2021/12/30 13:09:59;;;;;;;;;;;10.80;57.10;;;;;;5102543;28;19927;-70
2021/12/30 13:12:24;;;;;;;;;;;10.80;57.00;;;;;;5102589;28;20238;-71
2021/12/30 13:14:50;;;;;;;;;;;10.80;57.00;;;;;;5102551;28;19908;-69
2021/12/30 13:17:16;;;;;;;;;;;10.80;57.00;;;;;;5102457;28;19945;-70
2021/12/30 13:19:43;;;;;;;;;;;10.80;57.10;;;;;;5084341;28;19908;-70
2021/12/30 13:22:13;;;;;;;;;;;10.80;57.10;;;;;;5102322;28;20230;-70
2021/12/30 13:24:38;;;;;;;;;;;10.80;57.10;;;;;;5102334;28;19900;-70
2021/12/30 13:27:04;;;;;;;;;;;10.80;57.10;;;;;;5102240;28;19900;-70
2021/12/30 13:29:31;;;;;;;;;;;10.80;57.10;;;;;;5084247;28;19908;-70
2021/12/30 13:31:58;;;;;;;;;;;10.80;57.10;;;;;;5102114;28;19919;-70
2021/12/30 13:34:24;;;;;;;;;;;10.80;57.10;;;;;;5102221;28;19900;-70
2021/12/30 13:36:49;;;;;;;;;;;10.80;57.10;;;;;;5102071;28;19907;-71
2021/12/30 13:39:15;;;;;;;;;;;10.80;57.20;;;;;;5102066;28;19975;-70
2021/12/30 13:41:50;;;;;;;;;;;10.80;57.20;;;;;;5102056;28;20258;-71
2021/12/30 13:44:17;;;;;;;;;;;10.80;57.20;;;;;;5101915;28;19971;-70
2021/12/30 13:46:43;;;;;;;;;;;10.80;57.20;;;;;;5101993;28;19904;-71
2021/12/30 13:49:08;;;;;;;;;;;10.80;57.20;;;;;;5083741;28;20351;-70
2021/12/30 13:51:34;;;;;;;;;;;10.80;57.20;;;;;;5101765;28;19918;-71
2021/12/30 13:54:05;;;;;;;;;;;10.80;57.10;;;;;;5101730;28;19907;-70
2021/12/30 13:56:31;;;;;;;;;;;10.80;57.10;;;;;;5101752;28;19900;-70
2021/12/30 13:59:00;;;;;;;;;;;10.80;57.30;;;;;;5101639;28;20196;-70
2021/12/30 14:01:28;;;;;;;;;;;10.80;57.10;;;;;;5101555;28;19908;-70
2021/12/30 14:04:10;;;;;;;;;;;10.80;57.10;;;;;;5101557;28;19923;-70
2021/12/30 14:06:38;;;;;;;;;;;10.80;57.10;;;;;;5101310;28;19962;-70
2021/12/30 14:09:14;;;;;;;;;;;10.80;57.10;;;;;;5083430;28;19942;-70
2021/12/30 14:11:40;;;;;;;;;;;10.80;57.10;;;;;;5100679;28;19912;-70
2021/12/30 14:14:07;;;;;;;;;;;10.80;57.10;;;;;;5101308;28;19946;-70
2021/12/30 14:16:39;;;;;;;;;;;10.80;57.10;;;;;;5101417;28;19900;-71